createdAt,value
2022-11-28T00:02:12.499Z,100.00
2022-11-28T00:05:14.795Z,100.00
2022-11-28T00:08:17.290Z,100.00
2022-11-28T00:11:19.780Z,100.00
2022-11-28T00:14:21.825Z,100.00
2022-11-28T00:17:23.891Z,100.00
2022-11-28T00:20:26.005Z,100.00
2022-11-28T00:23:28.501Z,100.00
2022-11-28T00:26:34.606Z,100.00
2022-11-28T00:29:36.928Z,100.00
2022-11-28T00:32:39.041Z,100.00
2022-11-28T00:35:41.111Z,100.00
2022-11-28T00:38:43.966Z,100.00
2022-11-28T00:41:46.297Z,100.00
2022-11-28T00:44:49.455Z,100.00
2022-11-28T00:47:51.535Z,100.00
2022-11-28T00:50:54.732Z,100.00
2022-11-28T00:53:58.720Z,100.00
2022-11-28T00:57:00.795Z,100.00
2022-11-28T01:00:04.942Z,100.00
2022-11-28T01:03:07.009Z,100.00
2022-11-28T01:06:10.450Z,100.00
2022-11-28T01:09:24.001Z,100.00
2022-11-28T01:12:26.100Z,100.00
2022-11-28T01:15:28.316Z,100.00
2022-11-28T01:18:30.322Z,100.00
2022-11-28T01:21:32.562Z,100.00
2022-11-28T01:24:34.639Z,100.00
2022-11-28T01:27:36.677Z,100.00
2022-11-28T01:30:38.848Z,100.00
2022-11-28T01:33:40.976Z,100.00
2022-11-28T01:36:43.032Z,100.00
2022-11-28T01:39:45.110Z,100.00
2022-11-28T01:42:47.219Z,100.00
2022-11-28T01:45:49.582Z,100.00
2022-11-28T01:48:53.202Z,100.00
2022-11-28T01:52:08.058Z,100.00
2022-11-28T01:55:13.351Z,100.00
2022-11-28T01:58:16.048Z,100.00
2022-11-28T02:01:19.351Z,100.00
2022-11-28T02:04:22.802Z,100.00
2022-11-28T02:07:25.014Z,100.00
2022-11-28T02:10:37.302Z,100.00
2022-11-28T02:14:14.537Z,100.00
2022-11-28T02:17:44.770Z,100.00
2022-11-28T02:21:05.371Z,100.00
2022-11-28T02:24:25.955Z,100.00
2022-11-28T02:28:05.706Z,100.00
2022-11-28T02:31:07.647Z,100.00
2022-11-28T02:34:20.549Z,100.00
2022-11-28T02:37:40.815Z,100.00
2022-11-28T02:41:06.130Z,100.00
2022-11-28T02:44:33.679Z,100.00
2022-11-28T02:47:49.528Z,100.00
2022-11-28T02:51:02.660Z,100.00
2022-11-28T02:54:08.140Z,100.00
2022-11-28T02:57:11.087Z,100.00
2022-11-28T03:00:30.422Z,100.00
2022-11-28T03:03:38.702Z,100.00
2022-11-28T03:07:00.317Z,100.00
2022-11-28T03:10:35.960Z,100.00
2022-11-28T03:14:01.416Z,100.00
2022-11-28T03:18:07.505Z,100.00
2022-11-28T03:21:16.940Z,100.00
2022-11-28T03:24:29.976Z,100.00
2022-11-28T03:28:08.412Z,100.00
2022-11-28T03:31:21.352Z,100.00
2022-11-28T03:34:27.099Z,100.00
2022-11-28T03:37:35.320Z,100.00
2022-11-28T03:40:44.984Z,100.00
2022-11-28T03:43:53.590Z,100.00
2022-11-28T03:46:59.513Z,100.00
2022-11-28T03:50:07.663Z,100.00
2022-11-28T03:53:17.659Z,100.00
2022-11-28T03:56:53.967Z,100.00
2022-11-28T04:00:00.187Z,100.00
2022-11-28T04:03:12.053Z,100.00
2022-11-28T04:06:26.435Z,100.00
2022-11-28T04:09:45.375Z,100.00
2022-11-28T04:12:57.351Z,100.00
2022-11-28T04:16:39.857Z,100.00
2022-11-28T04:19:48.902Z,100.00
2022-11-28T04:22:56.165Z,100.00
2022-11-28T04:26:07.854Z,100.00
2022-11-28T04:29:14.237Z,100.00
2022-11-28T04:32:22.288Z,100.00
2022-11-28T04:35:30.952Z,100.00
2022-11-28T04:38:34.890Z,100.00
2022-11-28T04:41:46.395Z,100.00
2022-11-28T04:45:01.403Z,100.00
2022-11-28T04:48:04.361Z,100.00
2022-11-28T04:51:16.333Z,100.00
2022-11-28T04:54:47.501Z,100.00
2022-11-28T04:57:57.342Z,100.00
2022-11-28T05:01:02.092Z,100.00
2022-11-28T05:04:04.443Z,100.00
2022-11-28T05:07:08.645Z,100.00
2022-11-28T05:10:13.022Z,100.00
2022-11-28T05:13:15.682Z,100.00
2022-11-28T05:16:18.067Z,100.00
2022-11-28T05:19:20.216Z,100.00
2022-11-28T05:22:22.735Z,100.00
2022-11-28T05:25:25.246Z,100.00
2022-11-28T05:28:27.382Z,100.00
2022-11-28T05:31:29.561Z,100.00
2022-11-28T05:34:31.720Z,100.00
2022-11-28T05:37:34.072Z,100.00
2022-11-28T05:40:36.289Z,100.00
2022-11-28T05:43:38.347Z,100.00
2022-11-28T05:46:40.541Z,100.00
2022-11-28T05:49:43.354Z,100.00
2022-11-28T05:52:45.676Z,100.00
2022-11-28T05:55:48.455Z,100.00
2022-11-28T05:58:51.215Z,99.40
2022-11-28T06:01:53.406Z,99.55
2022-11-28T06:04:55.610Z,99.30
2022-11-28T06:07:57.832Z,98.94
2022-11-28T06:11:00.867Z,98.80
2022-11-28T06:14:03.320Z,98.68
2022-11-28T06:17:05.400Z,98.92
2022-11-28T06:20:08.850Z,99.14
2022-11-28T06:23:10.881Z,99.12
2022-11-28T06:26:16.240Z,99.04
2022-11-28T06:29:18.255Z,99.02
2022-11-28T06:32:22.195Z,99.04
2022-11-28T06:35:24.441Z,99.17
2022-11-28T06:38:26.602Z,98.89
2022-11-28T06:41:28.788Z,98.85
2022-11-28T06:44:30.925Z,99.27
2022-11-28T06:47:33.191Z,99.02
2022-11-28T06:50:35.216Z,98.16
2022-11-28T06:53:37.409Z,97.77
2022-11-28T06:56:41.119Z,97.91
2022-11-28T06:59:43.449Z,97.86
2022-11-28T07:02:45.603Z,97.47
2022-11-28T07:05:48.342Z,97.29
2022-11-28T07:08:51.293Z,97.30
2022-11-28T07:11:53.328Z,97.15
2022-11-28T07:14:55.928Z,97.15
2022-11-28T07:17:58.002Z,96.92
2022-11-28T07:21:00.110Z,97.04
2022-11-28T07:24:02.706Z,96.91
2022-11-28T07:27:04.886Z,97.21
2022-11-28T07:30:08.029Z,96.78
2022-11-28T07:33:10.095Z,96.95
2022-11-28T07:36:15.293Z,96.57
2022-11-28T07:39:17.774Z,95.40
2022-11-28T07:42:20.390Z,94.90
2022-11-28T07:45:59.279Z,94.98
2022-11-28T07:49:04.595Z,94.78
2022-11-28T07:52:06.639Z,94.92
2022-11-28T07:55:08.934Z,93.90
2022-11-28T07:58:11.045Z,93.87
2022-11-28T08:01:22.595Z,93.35
2022-11-28T08:04:24.824Z,93.16
2022-11-28T08:07:27.058Z,93.15
2022-11-28T08:10:29.264Z,92.78
2022-11-28T08:13:31.401Z,92.63
2022-11-28T08:16:33.814Z,92.21
2022-11-28T08:19:36.767Z,91.41
2022-11-28T08:22:38.960Z,90.75
2022-11-28T08:25:41.054Z,90.15
2022-11-28T08:28:43.786Z,89.81
2022-11-28T08:31:46.237Z,90.04
2022-11-28T08:34:48.242Z,90.35
2022-11-28T08:37:50.437Z,90.45
2022-11-28T08:41:03.932Z,90.15
2022-11-28T08:44:06.095Z,90.33
2022-11-28T08:47:08.162Z,88.97
2022-11-28T08:50:10.491Z,88.50
2022-11-28T08:53:12.562Z,87.89
2022-11-28T08:56:14.599Z,87.10
2022-11-28T08:59:16.702Z,84.31
2022-11-28T09:02:21.993Z,83.05
2022-11-28T09:05:29.700Z,81.91
2022-11-28T09:08:31.879Z,82.69
2022-11-28T09:11:33.889Z,80.48
2022-11-28T09:14:35.968Z,78.97
2022-11-28T09:17:38.004Z,79.19
2022-11-28T09:20:40.392Z,79.56
2022-11-28T09:23:44.790Z,79.00
2022-11-28T09:26:46.910Z,79.73
2022-11-28T09:29:48.995Z,79.10
2022-11-28T09:32:51.096Z,77.46
2022-11-28T09:35:53.131Z,76.98
2022-11-28T09:38:55.199Z,76.55
2022-11-28T09:42:06.285Z,76.06
2022-11-28T09:45:12.606Z,75.81
2022-11-28T09:48:34.844Z,75.52
2022-11-28T09:51:50.177Z,73.71
2022-11-28T09:55:11.247Z,72.91
2022-11-28T09:58:25.020Z,71.90
2022-11-28T10:01:37.885Z,70.86
2022-11-28T10:05:19.277Z,69.73
2022-11-28T10:08:36.376Z,71.18
2022-11-28T10:12:01.011Z,70.04
2022-11-28T10:15:03.081Z,70.34
2022-11-28T10:18:22.962Z,69.88
2022-11-28T10:21:40.622Z,69.73
2022-11-28T10:24:48.589Z,70.38
2022-11-28T10:27:51.754Z,69.73
2022-11-28T10:31:02.043Z,71.42
2022-11-28T10:34:20.461Z,68.75
2022-11-28T10:37:26.970Z,70.31
2022-11-28T10:40:29.072Z,68.82
2022-11-28T10:43:46.899Z,68.53
2022-11-28T10:46:52.012Z,68.25
2022-11-28T10:49:57.001Z,70.00
2022-11-28T10:53:03.494Z,69.33
2022-11-28T10:56:33.605Z,69.49
2022-11-28T10:59:41.985Z,69.00
2022-11-28T11:02:55.067Z,70.74
2022-11-28T11:05:57.518Z,69.14
2022-11-28T11:09:00.664Z,68.77
2022-11-28T11:12:04.766Z,68.23
2022-11-28T11:15:30.719Z,67.85
2022-11-28T11:18:51.231Z,68.93
2022-11-28T11:22:09.659Z,69.33
2022-11-28T11:25:17.242Z,68.78
2022-11-28T11:28:33.059Z,70.88
2022-11-28T11:31:46.898Z,70.61
2022-11-28T11:34:50.135Z,68.69
2022-11-28T11:38:12.677Z,70.52
2022-11-28T11:41:31.571Z,69.71
2022-11-28T11:44:34.992Z,70.35
2022-11-28T11:47:42.635Z,70.92
2022-11-28T11:50:54.871Z,71.05
2022-11-28T11:54:26.256Z,71.16
2022-11-28T11:57:46.507Z,72.07
2022-11-28T12:00:48.654Z,72.97
2022-11-28T12:03:58.339Z,73.58
2022-11-28T12:07:05.132Z,73.45
2022-11-28T12:10:16.429Z,73.21
2022-11-28T12:13:22.215Z,73.35
2022-11-28T12:16:55.903Z,72.93
2022-11-28T12:20:34.083Z,73.96
2022-11-28T12:23:54.486Z,73.32
2022-11-28T12:26:59.199Z,73.63
2022-11-28T12:30:29.351Z,73.89
2022-11-28T12:33:48.482Z,73.99
2022-11-28T12:37:14.806Z,73.24
2022-11-28T12:40:55.281Z,73.84
2022-11-28T12:44:27.234Z,73.65
2022-11-28T12:47:44.424Z,72.60
2022-11-28T12:50:52.794Z,73.31
2022-11-28T12:53:54.877Z,72.62
2022-11-28T12:57:02.997Z,73.03
2022-11-28T13:00:19.951Z,73.27
2022-11-28T13:04:11.393Z,72.71
2022-11-28T13:07:21.529Z,71.90
2022-11-28T13:10:42.043Z,72.34
2022-11-28T13:14:14.893Z,72.20
2022-11-28T13:17:22.828Z,73.73
2022-11-28T13:20:29.687Z,73.32
2022-11-28T13:24:13.346Z,73.43
2022-11-28T13:27:54.957Z,73.68
2022-11-28T13:31:23.028Z,72.67
2022-11-28T13:34:25.505Z,74.04
2022-11-28T13:41:52.722Z,74.33
2022-11-28T13:45:07.510Z,74.00
2022-11-28T13:52:29.620Z,74.27
2022-11-28T13:55:47.044Z,74.70
2022-11-28T13:59:00.916Z,74.81
2022-11-28T14:02:16.308Z,75.48
2022-11-28T14:05:30.959Z,75.96
2022-11-28T14:08:40.403Z,77.51
2022-11-28T14:11:57.598Z,78.22
2022-11-28T14:15:24.360Z,79.76
2022-11-28T14:19:00.508Z,80.21
2022-11-28T14:22:21.339Z,80.77
2022-11-28T14:25:26.747Z,80.76
2022-11-28T14:28:36.871Z,81.69
2022-11-28T14:31:40.110Z,82.59
2022-11-28T14:34:46.399Z,83.04
2022-11-28T14:37:54.223Z,83.12
2022-11-28T14:40:57.196Z,84.32
2022-11-28T14:44:47.160Z,84.44
2022-11-28T14:48:24.449Z,84.22
2022-11-28T14:52:09.914Z,85.79
2022-11-28T14:55:22.118Z,85.84
2022-11-28T14:58:24.221Z,85.41
2022-11-28T15:01:55.765Z,86.39
2022-11-28T15:05:35.466Z,86.48
2022-11-28T15:09:13.779Z,86.71
2022-11-28T15:12:37.865Z,86.66
2022-11-28T15:15:49.212Z,87.02
2022-11-28T15:18:57.102Z,87.69
2022-11-28T15:22:01.137Z,87.71
2022-11-28T15:25:22.034Z,87.77
2022-11-28T15:28:28.530Z,88.29
2022-11-28T15:31:33.152Z,88.15
2022-11-28T15:34:37.614Z,88.49
2022-11-28T15:37:46.131Z,88.05
2022-11-28T15:40:53.721Z,88.85
2022-11-28T15:43:57.056Z,88.77
2022-11-28T15:46:59.426Z,89.25
2022-11-28T15:50:11.846Z,88.85
2022-11-28T15:53:19.240Z,88.73
2022-11-28T15:56:21.450Z,88.70
2022-11-28T15:59:23.675Z,89.04
2022-11-28T16:02:34.159Z,89.08
2022-11-28T16:05:36.430Z,89.22
2022-11-28T16:08:46.211Z,89.18
2022-11-28T16:11:53.468Z,89.22
2022-11-28T16:15:01.952Z,89.67
2022-11-28T16:18:04.525Z,89.71
2022-11-28T16:21:14.700Z,89.58
2022-11-28T16:24:38.763Z,89.83
2022-11-28T16:27:44.695Z,90.27
2022-11-28T16:30:48.828Z,90.25
2022-11-28T16:33:52.385Z,90.65
2022-11-28T16:36:54.943Z,90.52
2022-11-28T16:40:35.774Z,90.83
2022-11-28T16:43:40.792Z,90.63
2022-11-28T16:47:00.512Z,90.64
2022-11-28T16:50:20.251Z,90.95
2022-11-28T16:53:44.278Z,90.75
2022-11-28T16:56:48.076Z,90.87
2022-11-28T16:59:54.386Z,91.40
2022-11-28T17:02:56.845Z,91.49
2022-11-28T17:06:01.267Z,91.30
2022-11-28T17:09:08.539Z,91.08
2022-11-28T17:12:27.886Z,91.61
2022-11-28T17:15:30.777Z,91.74
2022-11-28T17:18:33.554Z,91.68
2022-11-28T17:21:43.268Z,91.86
2022-11-28T17:24:47.143Z,91.97
2022-11-28T17:27:49.874Z,91.85
2022-11-28T17:30:52.762Z,91.79
2022-11-28T17:33:57.074Z,91.67
2022-11-28T17:37:04.355Z,91.80
2022-11-28T17:40:26.553Z,92.09
2022-11-28T17:43:32.414Z,92.23
2022-11-28T17:46:39.003Z,92.62
2022-11-28T17:49:46.160Z,92.53
2022-11-28T17:52:49.719Z,92.52
2022-11-28T17:55:59.012Z,92.62
2022-11-28T17:59:03.066Z,92.80
2022-11-28T18:02:06.102Z,92.37
2022-11-28T18:05:09.376Z,92.61
2022-11-28T18:08:16.807Z,92.90
2022-11-28T18:11:23.803Z,93.04
2022-11-28T18:14:28.487Z,92.94
2022-11-28T18:17:33.761Z,93.11
2022-11-28T18:20:39.324Z,93.22
2022-11-28T18:23:50.025Z,93.63
2022-11-28T18:26:54.870Z,93.41
2022-11-28T18:29:58.029Z,93.66
2022-11-28T18:33:01.325Z,93.49
2022-11-28T18:36:11.126Z,93.59
2022-11-28T18:39:16.187Z,93.38
2022-11-28T18:42:21.379Z,93.48
2022-11-28T18:45:24.300Z,93.74
2022-11-28T18:48:27.855Z,93.52
2022-11-28T18:51:34.851Z,93.83
2022-11-28T18:54:39.374Z,93.59
2022-11-28T18:57:42.364Z,93.75
2022-11-28T19:00:46.667Z,93.71
2022-11-28T19:03:52.551Z,93.57
2022-11-28T19:06:56.414Z,93.65
2022-11-28T19:10:00.460Z,93.62
2022-11-28T19:13:04.152Z,93.34
2022-11-28T19:16:09.876Z,93.36
2022-11-28T19:19:13.324Z,93.42
2022-11-28T19:22:16.963Z,93.36
2022-11-28T19:25:19.969Z,93.21
2022-11-28T19:28:23.819Z,93.29
2022-11-28T19:31:29.668Z,93.18
2022-11-28T19:34:34.679Z,93.18
2022-11-28T19:37:38.155Z,93.33
2022-11-28T19:40:41.394Z,93.10
2022-11-28T19:43:45.277Z,92.87
2022-11-28T19:46:51.065Z,92.71
2022-11-28T19:49:54.709Z,92.84
2022-11-28T19:52:59.940Z,92.79
2022-11-28T19:56:05.622Z,92.94
2022-11-28T19:59:10.790Z,92.62
2022-11-28T20:02:15.120Z,92.75
2022-11-28T20:05:18.859Z,92.92
2022-11-28T20:08:23.237Z,92.84
2022-11-28T20:11:30.284Z,92.80
2022-11-28T20:14:34.777Z,92.67
2022-11-28T20:17:38.865Z,92.29
2022-11-28T20:20:43.371Z,92.20
2022-11-28T20:23:56.686Z,91.85
2022-11-28T20:27:01.089Z,92.17
2022-11-28T20:30:07.651Z,92.14
2022-11-28T20:33:10.798Z,91.83
2022-11-28T20:36:17.055Z,92.13
2022-11-28T20:39:20.212Z,92.15
2022-11-28T20:42:23.984Z,91.79
2022-11-28T20:45:28.524Z,91.09
2022-11-28T20:48:31.843Z,91.48
2022-11-28T20:51:37.094Z,91.70
2022-11-28T20:54:40.168Z,91.44
2022-11-28T20:57:43.212Z,91.15
2022-11-28T21:00:47.414Z,91.50
2022-11-28T21:03:51.265Z,91.56
2022-11-28T21:06:54.268Z,91.57
2022-11-28T21:10:00.692Z,91.56
2022-11-28T21:13:03.329Z,91.52
2022-11-28T21:16:08.032Z,91.64
2022-11-28T21:19:10.590Z,91.81
2022-11-28T21:22:13.257Z,91.81
2022-11-28T21:25:15.427Z,91.73
2022-11-28T21:28:18.133Z,91.90
2022-11-28T21:31:25.983Z,91.84
2022-11-28T21:34:28.380Z,91.83
2022-11-28T21:37:30.630Z,91.81
2022-11-28T21:40:33.743Z,91.76
2022-11-28T21:43:35.813Z,91.89
2022-11-28T21:46:38.029Z,91.84
2022-11-28T21:49:40.500Z,91.84
2022-11-28T21:52:42.898Z,92.04
2022-11-28T21:55:45.580Z,92.07
2022-11-28T21:58:48.430Z,92.08
2022-11-28T22:01:50.536Z,92.21
2022-11-28T22:04:55.188Z,92.32
2022-11-28T22:07:57.471Z,92.23
2022-11-28T22:11:03.684Z,92.30
2022-11-28T22:14:05.882Z,92.45
2022-11-28T22:17:08.181Z,92.44
2022-11-28T22:20:10.834Z,92.57
2022-11-28T22:23:12.986Z,92.68
2022-11-28T22:26:15.640Z,92.55
2022-11-28T22:29:18.445Z,92.51
2022-11-28T22:32:21.095Z,92.55
2022-11-28T22:35:23.903Z,93.11
2022-11-28T22:38:26.008Z,92.80
2022-11-28T22:41:29.626Z,92.99
2022-11-28T22:44:34.301Z,92.88
2022-11-28T22:47:36.882Z,92.84
2022-11-28T22:50:40.684Z,92.96
2022-11-28T22:53:43.601Z,93.17
2022-11-28T22:56:45.644Z,92.77
2022-11-28T22:59:47.739Z,92.48
2022-11-28T23:02:49.939Z,92.68
2022-11-28T23:05:52.226Z,92.62
2022-11-28T23:08:55.874Z,92.57
2022-11-28T23:12:01.536Z,92.74
2022-11-28T23:15:04.073Z,92.29
2022-11-28T23:18:06.310Z,92.59
2022-11-28T23:21:09.402Z,92.79
2022-11-28T23:24:18.177Z,92.90
2022-11-28T23:27:21.044Z,92.99
2022-11-28T23:30:23.244Z,92.58
2022-11-28T23:33:25.640Z,92.69
2022-11-28T23:36:31.087Z,92.94
2022-11-28T23:39:34.339Z,92.76
2022-11-28T23:42:41.939Z,93.11
2022-11-28T23:45:44.005Z,93.32
2022-11-28T23:48:47.613Z,93.24
2022-11-28T23:51:49.811Z,93.27
2022-11-28T23:54:51.847Z,93.19
2022-11-28T23:57:54.908Z,93.15
